createdAt,value
2023-08-08T00:01:07.181Z,43.33
2023-08-08T00:06:12.817Z,41.00
2023-08-08T00:11:17.820Z,44.00
2023-08-08T00:16:23.221Z,43.00
2023-08-08T00:21:30.200Z,42.00
2023-08-08T00:26:36.105Z,48.00
2023-08-08T00:31:41.130Z,45.67
2023-08-08T00:36:46.901Z,47.50
2023-08-08T00:41:51.936Z,45.00
2023-08-08T00:46:57.279Z,45.00
2023-08-08T00:52:03.442Z,43.75
2023-08-08T00:57:08.815Z,45.00
2023-08-08T01:02:14.690Z,46.00
2023-08-08T01:07:43.896Z,45.50
2023-08-08T01:12:59.061Z,47.67
2023-08-08T01:18:06.432Z,46.00
2023-08-08T01:23:29.526Z,43.00
2023-08-08T01:33:41.532Z,44.50
2023-08-08T01:38:50.798Z,46.67
2023-08-08T01:43:56.411Z,46.25
2023-08-08T01:49:03.127Z,46.50
2023-08-08T01:54:08.165Z,46.00
2023-08-08T01:59:14.995Z,46.00
2023-08-08T02:04:23.520Z,48.00
2023-08-08T02:09:31.871Z,46.00
2023-08-08T02:14:37.248Z,46.75
2023-08-08T02:19:42.959Z,47.00
2023-08-08T02:24:50.168Z,46.25
2023-08-08T02:29:56.204Z,45.00
2023-08-08T02:35:03.209Z,42.33
2023-08-08T02:40:10.384Z,42.50
2023-08-08T02:45:15.771Z,46.00
2023-08-08T02:50:22.262Z,44.00
2023-08-08T02:55:29.239Z,44.00
2023-08-08T03:00:36.177Z,46.50
2023-08-08T03:05:42.569Z,46.00
2023-08-08T03:10:49.301Z,48.00
2023-08-08T03:15:54.857Z,48.00
2023-08-08T03:21:01.863Z,45.00
2023-08-08T03:26:11.673Z,47.75
2023-08-08T03:31:18.101Z,46.50
2023-08-08T03:36:24.975Z,41.75
2023-08-08T03:41:31.354Z,42.00
2023-08-08T03:46:37.378Z,45.00
2023-08-08T03:56:49.231Z,43.00
2023-08-08T04:01:56.655Z,42.00
2023-08-08T04:07:03.525Z,43.50
2023-08-08T04:12:10.513Z,42.00
2023-08-08T04:17:16.526Z,44.25
2023-08-08T04:22:22.391Z,46.67
2023-08-08T04:27:28.233Z,42.25
2023-08-08T04:32:33.645Z,41.25
2023-08-08T04:37:39.077Z,45.00
2023-08-08T04:42:44.662Z,43.50
2023-08-08T04:47:52.317Z,42.50
2023-08-08T04:52:57.925Z,42.00
2023-08-08T04:58:04.094Z,44.00
2023-08-08T05:03:09.912Z,46.00
2023-08-08T05:08:16.986Z,45.33
2023-08-08T05:13:22.395Z,43.00
2023-08-08T05:18:28.056Z,42.25
2023-08-08T05:28:40.077Z,45.00
2023-08-08T05:33:45.467Z,48.50
2023-08-08T05:38:50.827Z,47.75
2023-08-08T05:43:58.009Z,47.25
2023-08-08T05:49:04.111Z,48.00
2023-08-08T05:54:09.502Z,50.00
2023-08-08T05:59:14.518Z,49.75
2023-08-08T06:04:19.965Z,49.00
2023-08-08T06:09:25.721Z,49.00
2023-08-08T06:14:31.797Z,47.50
2023-08-08T06:19:37.109Z,47.33
2023-08-08T06:24:43.781Z,50.00
2023-08-08T06:29:49.860Z,48.00
2023-08-08T06:34:56.249Z,49.00
2023-08-08T06:40:02.366Z,48.00
2023-08-08T06:45:08.950Z,47.00
2023-08-08T06:55:19.784Z,48.75
2023-08-08T07:00:25.622Z,48.00
2023-08-08T07:05:32.570Z,50.00
2023-08-08T07:10:39.309Z,48.00
2023-08-08T07:15:45.062Z,50.00
2023-08-08T07:20:51.807Z,48.00
2023-08-08T07:25:58.149Z,48.00
2023-08-08T07:31:04.062Z,48.00
2023-08-08T07:41:15.218Z,46.00
2023-08-08T07:46:21.025Z,44.00
2023-08-08T07:51:27.007Z,44.50
2023-08-08T07:56:32.439Z,48.00
2023-08-08T08:01:38.921Z,46.00
2023-08-08T08:06:45.389Z,43.25
2023-08-08T08:11:50.961Z,44.75
2023-08-08T08:16:56.700Z,42.00
2023-08-08T08:22:02.450Z,42.00
2023-08-08T08:27:08.455Z,42.00
2023-08-08T08:32:13.870Z,42.00
2023-08-08T08:37:19.157Z,42.00
2023-08-08T08:42:28.650Z,45.00
2023-08-08T08:47:36.412Z,43.00
2023-08-08T08:52:42.179Z,44.00
2023-08-08T08:57:49.461Z,39.33
2023-08-08T09:02:57.914Z,43.50
2023-08-08T09:08:03.624Z,40.75
2023-08-08T09:13:09.219Z,38.33
2023-08-08T09:18:17.042Z,35.00
2023-08-08T09:23:22.984Z,38.75
2023-08-08T09:28:28.861Z,38.33
2023-08-08T09:33:35.196Z,40.67
2023-08-08T09:38:40.851Z,38.33
2023-08-08T09:43:51.451Z,42.00
2023-08-08T09:48:58.453Z,34.33
2023-08-08T09:54:06.611Z,40.00
2023-08-08T09:59:15.781Z,42.00
2023-08-08T10:04:22.138Z,40.00
2023-08-08T10:09:29.701Z,42.00
2023-08-08T10:14:38.970Z,39.33
2023-08-08T10:24:58.864Z,35.50
2023-08-08T10:30:12.781Z,37.50
2023-08-08T10:35:18.034Z,39.75
2023-08-08T10:40:23.531Z,42.00
2023-08-08T10:45:33.421Z,42.50
2023-08-08T10:50:44.819Z,41.67
2023-08-08T10:55:52.774Z,38.67
2023-08-08T11:00:57.923Z,40.50
2023-08-08T11:06:04.076Z,37.67
2023-08-08T11:11:09.898Z,39.00
2023-08-08T11:21:19.611Z,38.25
2023-08-08T11:26:25.488Z,39.00
2023-08-08T11:31:31.467Z,38.25
2023-08-08T11:41:44.027Z,42.50
2023-08-08T11:46:50.414Z,38.25
2023-08-08T11:52:02.603Z,41.67
2023-08-08T11:57:09.075Z,40.00
2023-08-08T12:02:15.917Z,39.67
2023-08-08T12:07:22.694Z,38.00
2023-08-08T12:12:30.845Z,40.50
2023-08-08T12:17:36.295Z,41.50
2023-08-08T12:22:41.217Z,38.25
2023-08-08T12:27:45.941Z,41.75
2023-08-08T12:32:51.944Z,40.33
2023-08-08T12:37:57.604Z,40.00
2023-08-08T12:43:03.512Z,40.50
2023-08-08T12:48:08.860Z,38.00
2023-08-08T12:53:13.920Z,37.00
2023-08-08T12:58:21.106Z,35.75
2023-08-08T13:03:27.193Z,38.50
2023-08-08T13:08:33.725Z,39.50
2023-08-08T13:13:38.891Z,41.33
2023-08-08T13:18:43.725Z,42.75
2023-08-08T13:23:50.457Z,41.67
2023-08-08T13:28:56.421Z,42.33
2023-08-08T13:34:01.613Z,44.75
2023-08-08T13:39:06.874Z,42.67
2023-08-08T13:44:12.912Z,39.00
2023-08-08T13:49:18.540Z,43.00
2023-08-08T13:54:24.470Z,42.75
2023-08-08T13:59:29.887Z,45.00
2023-08-08T14:04:34.661Z,43.00
2023-08-08T14:09:39.872Z,44.50
2023-08-08T14:14:46.152Z,44.00
2023-08-08T14:19:52.017Z,45.00
2023-08-08T14:24:57.071Z,45.00
2023-08-08T14:30:01.925Z,43.25
2023-08-08T14:35:07.733Z,45.00
2023-08-08T14:40:13.293Z,47.00
2023-08-08T14:45:18.771Z,46.00
2023-08-08T14:50:23.772Z,47.00
2023-08-08T14:55:29.611Z,47.00
2023-08-08T15:00:34.664Z,46.00
2023-08-08T15:05:40.966Z,48.00
2023-08-08T15:10:45.949Z,44.00
2023-08-08T15:15:52.296Z,46.50
2023-08-08T15:20:57.336Z,46.00
2023-08-08T15:31:08.186Z,43.33
2023-08-08T15:36:13.577Z,48.00
2023-08-08T15:41:18.687Z,47.00
2023-08-08T15:46:23.764Z,45.75
2023-08-08T15:51:29.012Z,44.00
2023-08-08T15:56:33.968Z,47.00
2023-08-08T16:01:39.123Z,47.00
2023-08-08T16:06:44.325Z,47.50
2023-08-08T16:11:50.330Z,46.25
2023-08-08T16:16:55.285Z,47.00
2023-08-08T16:22:00.357Z,47.75
2023-08-08T16:27:08.425Z,49.00
2023-08-08T16:32:14.349Z,49.00
2023-08-08T16:37:20.128Z,47.33
2023-08-08T16:47:34.535Z,49.67
2023-08-08T16:52:40.166Z,50.00
2023-08-08T16:57:47.342Z,50.00
2023-08-08T17:02:53.474Z,50.00
2023-08-08T17:07:58.744Z,50.00
2023-08-08T17:13:05.161Z,50.00
2023-08-08T17:23:21.427Z,50.00
2023-08-08T17:28:26.306Z,50.25
2023-08-08T17:33:32.048Z,50.00
2023-08-08T17:38:37.208Z,50.00
2023-08-08T17:48:46.698Z,50.00
2023-08-08T17:53:52.550Z,50.00
2023-08-08T17:58:58.703Z,53.50
2023-08-08T18:04:04.803Z,52.50
2023-08-08T18:09:10.745Z,53.33
2023-08-08T18:14:15.843Z,50.00
2023-08-08T18:19:22.436Z,56.33
2023-08-08T18:24:27.746Z,50.00
2023-08-08T18:29:32.803Z,50.00
2023-08-08T18:34:39.821Z,50.25
2023-08-08T18:39:47.148Z,50.00
2023-08-08T18:44:52.360Z,50.00
2023-08-08T18:49:57.580Z,52.00
2023-08-08T18:55:02.679Z,50.00
2023-08-08T19:00:09.508Z,53.00
2023-08-08T19:05:14.533Z,63.25
2023-08-08T19:10:20.779Z,55.67
2023-08-08T19:15:26.821Z,61.00
2023-08-08T19:20:32.135Z,54.75
2023-08-08T19:25:37.252Z,51.67
2023-08-08T19:30:42.879Z,50.00
2023-08-08T19:35:47.840Z,52.00
2023-08-08T19:40:54.731Z,50.00
2023-08-08T19:46:01.042Z,51.00
2023-08-08T19:51:07.232Z,54.25
2023-08-08T19:56:13.034Z,60.67
2023-08-08T20:01:18.994Z,50.25
2023-08-08T20:06:24.004Z,51.33
2023-08-08T20:11:29.579Z,50.00
2023-08-08T20:16:35.161Z,50.00
2023-08-08T20:21:41.223Z,50.00
2023-08-08T20:26:46.990Z,50.00
2023-08-08T20:31:51.966Z,50.00
2023-08-08T20:36:56.842Z,50.33
2023-08-08T20:42:03.456Z,52.25
2023-08-08T20:47:08.594Z,50.00
2023-08-08T20:52:14.305Z,51.00
2023-08-08T20:57:20.123Z,50.00
2023-08-08T21:02:25.450Z,52.00
2023-08-08T21:07:30.680Z,50.00
2023-08-08T21:12:36.728Z,50.00
2023-08-08T21:17:49.501Z,50.00
2023-08-08T21:22:54.532Z,50.00
2023-08-08T21:28:01.776Z,50.00
2023-08-08T21:38:12.611Z,51.67
2023-08-08T21:43:18.392Z,50.00
2023-08-08T21:48:23.467Z,50.00
2023-08-08T21:53:30.008Z,52.50
2023-08-08T21:58:37.373Z,51.00
2023-08-08T22:03:42.142Z,50.00
2023-08-08T22:08:47.368Z,51.67
2023-08-08T22:13:52.259Z,53.00
2023-08-08T22:18:58.095Z,51.00
2023-08-08T22:24:04.017Z,59.00
2023-08-08T22:29:09.541Z,56.25
2023-08-08T22:34:15.063Z,54.50
2023-08-08T22:39:20.058Z,50.00
2023-08-08T22:44:24.725Z,52.50
2023-08-08T22:49:30.547Z,52.25
2023-08-08T22:54:35.411Z,52.00
2023-08-08T22:59:40.667Z,52.00
2023-08-08T23:04:45.665Z,53.00
2023-08-08T23:09:51.008Z,61.00
2023-08-08T23:14:55.687Z,60.25
2023-08-08T23:20:00.813Z,61.00
2023-08-08T23:25:07.881Z,57.25
2023-08-08T23:30:12.920Z,59.67
2023-08-08T23:35:17.623Z,63.75
2023-08-08T23:40:22.802Z,69.67
2023-08-08T23:45:27.469Z,65.00
2023-08-08T23:50:33.558Z,64.25
2023-08-08T23:55:38.530Z,67.75
